Time;durP1;ratioP1;P1;durP2;ratioP2;P2;SDS_P1;SDS_P2;PMS_P1;PMS_P2;Temp;Humidity;BMP_temperature;BMP_pressure;BME280_temperature;BME280_humidity;BME280_pressure;Samples;Min_cycle;Max_cycle;Signal;HPM_P1;HPM_P2
2022/07/27 00:01:30;;;;;;;5.20;1.67;;;18.40;99.90;;;;;;5009487;28;20580;-84
2022/07/27 00:03:56;;;;;;;7.33;1.47;;;18.30;99.90;;;;;;5004514;28;20205;-85
2022/07/27 00:06:21;;;;;;;6.83;1.73;;;18.40;99.90;;;;;;5003507;28;20214;-84
2022/07/27 00:08:47;;;;;;;4.07;1.20;;;18.30;99.90;;;;;;5007577;28;20201;-84
2022/07/27 00:11:13;;;;;;;5.13;1.40;;;18.30;99.90;;;;;;5008958;28;20235;-85
2022/07/27 00:13:39;;;;;;;4.40;2.03;;;18.30;99.90;;;;;;5004781;28;20664;-85
2022/07/27 00:16:05;;;;;;;7.10;1.93;;;18.30;99.90;;;;;;5008583;28;20435;-85
2022/07/27 00:18:31;;;;;;;11.83;1.70;;;18.30;99.90;;;;;;5011675;28;20782;-85
2022/07/27 00:20:57;;;;;;;3.77;1.60;;;18.30;99.90;;;;;;5005244;28;20440;-84
2022/07/27 00:23:23;;;;;;;2.80;1.53;;;18.30;99.90;;;;;;5006732;28;20471;-84
2022/07/27 00:25:48;;;;;;;2.57;1.40;;;18.20;99.90;;;;;;5004876;28;20685;-85
2022/07/27 00:28:14;;;;;;;3.20;1.43;;;18.20;99.90;;;;;;5006928;28;20272;-86
2022/07/27 00:30:39;;;;;;;3.77;1.70;;;18.20;99.90;;;;;;5010073;28;20551;-84
2022/07/27 00:33:05;;;;;;;6.60;1.40;;;18.10;99.90;;;;;;5005807;28;20554;-84
2022/07/27 00:35:31;;;;;;;2.23;1.30;;;18.10;99.90;;;;;;5009703;28;20207;-84
2022/07/27 00:37:57;;;;;;;3.00;1.20;;;18.10;99.90;;;;;;5007237;28;20448;-85
2022/07/27 00:40:24;;;;;;;2.90;1.27;;;18.10;99.90;;;;;;5007672;28;20452;-84
2022/07/27 00:42:49;;;;;;;9.57;1.73;;;18.10;99.90;;;;;;5005192;28;20208;-84
2022/07/27 00:45:15;;;;;;;5.13;1.50;;;18.00;99.90;;;;;;5007390;28;20810;-85
2022/07/27 00:47:41;;;;;;;3.50;1.47;;;18.00;99.90;;;;;;5010855;28;20216;-86
2022/07/27 00:50:07;;;;;;;2.57;1.50;;;18.00;99.90;;;;;;5013861;28;20214;-84
2022/07/27 00:52:33;;;;;;;5.27;1.70;;;18.00;99.90;;;;;;5007272;28;20212;-84
2022/07/27 00:54:59;;;;;;;3.43;1.60;;;18.00;99.90;;;;;;5007688;28;20515;-84
2022/07/27 00:57:26;;;;;;;3.63;1.53;;;18.00;99.90;;;;;;5004503;28;21040;-82
2022/07/27 00:59:52;;;;;;;5.57;1.53;;;17.90;99.90;;;;;;5006968;28;20438;-84
2022/07/27 01:02:19;;;;;;;4.43;1.43;;;17.90;99.90;;;;;;5006633;28;20466;-85
2022/07/27 01:04:44;;;;;;;3.30;1.30;;;17.90;99.90;;;;;;5008081;28;20514;-85
2022/07/27 01:07:11;;;;;;;4.90;1.53;;;17.90;99.90;;;;;;5007398;28;20546;-85
2022/07/27 01:12:21;;;;;;;8.10;2.13;;;17.90;99.90;;;;;;5006159;28;20524;-85
2022/07/27 01:14:48;;;;;;;5.17;1.40;;;17.90;99.90;;;;;;5010864;28;20445;-85
2022/07/27 01:17:14;;;;;;;4.23;1.70;;;17.90;99.90;;;;;;5005784;28;20434;-85
2022/07/27 01:19:41;;;;;;;2.30;1.30;;;17.90;99.90;;;;;;5008587;28;20787;-84
2022/07/27 01:22:07;;;;;;;3.17;1.73;;;17.90;99.90;;;;;;5004535;28;20461;-84
2022/07/27 01:24:33;;;;;;;2.20;1.17;;;17.90;99.90;;;;;;5008009;28;20440;-85
2022/07/27 01:27:03;;;;;;;4.23;1.50;;;17.80;99.90;;;;;;5004629;28;20272;-85
2022/07/27 01:29:30;;;;;;;5.63;1.90;;;17.80;99.90;;;;;;5009282;28;20840;-85
2022/07/27 01:31:56;;;;;;;2.37;1.40;;;17.80;99.90;;;;;;5002761;28;20802;-85
2022/07/27 01:34:22;;;;;;;5.00;1.57;;;17.70;99.90;;;;;;5007826;28;20490;-85
2022/07/27 01:36:48;;;;;;;7.43;1.50;;;17.70;99.90;;;;;;5006035;28;20466;-84
2022/07/27 01:39:16;;;;;;;6.33;1.87;;;17.60;99.90;;;;;;5008579;28;20495;-85
2022/07/27 01:41:41;;;;;;;7.57;1.80;;;17.60;99.90;;;;;;5002854;28;20661;-85
2022/07/27 01:44:07;;;;;;;4.53;1.93;;;17.50;99.90;;;;;;5006877;28;20461;-85
2022/07/27 01:46:33;;;;;;;4.10;1.53;;;17.40;99.90;;;;;;5005560;28;20190;-84
2022/07/27 01:48:59;;;;;;;4.10;2.20;;;17.30;99.90;;;;;;5005563;28;20219;-84
2022/07/27 01:51:24;;;;;;;4.17;1.40;;;17.20;99.90;;;;;;5008132;28;20184;-85
2022/07/27 01:53:50;;;;;;;10.20;2.10;;;17.10;99.90;;;;;;5009203;28;20282;-85
2022/07/27 01:56:15;;;;;;;4.00;1.60;;;17.10;99.90;;;;;;5004357;28;20185;-86
2022/07/27 01:58:42;;;;;;;2.80;1.73;;;17.00;99.90;;;;;;5005556;28;20191;-85
2022/07/27 02:01:08;;;;;;;2.60;1.60;;;17.00;99.90;;;;;;5006319;28;20191;-85
2022/07/27 02:03:34;;;;;;;3.73;1.67;;;16.90;99.90;;;;;;5004800;28;20842;-85
2022/07/27 02:06:01;;;;;;;6.10;1.90;;;16.80;99.90;;;;;;5006050;28;20190;-86
2022/07/27 02:08:27;;;;;;;3.80;1.77;;;16.80;99.90;;;;;;5004245;28;20480;-85
2022/07/27 02:13:37;;;;;;;6.10;2.10;;;16.60;99.90;;;;;;5005055;28;20519;-85
2022/07/27 02:16:03;;;;;;;4.00;1.83;;;16.50;99.90;;;;;;5003880;28;20929;-86
2022/07/27 02:18:28;;;;;;;2.43;1.80;;;16.50;99.90;;;;;;5003068;28;20197;-85
2022/07/27 02:20:54;;;;;;;5.53;1.90;;;16.40;99.90;;;;;;5004740;28;20195;-84
2022/07/27 02:23:19;;;;;;;3.87;1.83;;;16.40;99.90;;;;;;5006866;28;20218;-85
2022/07/27 02:25:45;;;;;;;2.43;1.90;;;16.30;99.90;;;;;;5008366;28;20225;-85
2022/07/27 02:28:10;;;;;;;4.07;2.00;;;16.30;1.00;;;;;;5007958;28;20197;-85
2022/07/27 02:30:38;;;;;;;6.37;2.17;;;16.20;1.00;;;;;;5006560;28;20281;-84
2022/07/27 02:33:05;;;;;;;4.70;2.30;;;16.10;1.00;;;;;;5007408;28;20209;-85
2022/07/27 02:35:30;;;;;;;6.20;1.73;;;16.10;1.00;;;;;;5002915;28;20545;-84
2022/07/27 02:37:56;;;;;;;5.67;2.43;;;16.00;1.00;;;;;;5011083;28;20467;-84
2022/07/27 02:40:21;;;;;;;8.03;2.50;;;16.00;1.00;;;;;;5009854;28;20202;-84
2022/07/27 02:42:47;;;;;;;6.70;2.27;;;15.90;1.00;;;;;;5011540;28;20210;-84
2022/07/27 02:45:14;;;;;;;6.97;2.50;;;15.90;1.00;;;;;;5010570;28;20186;-84
2022/07/27 02:47:40;;;;;;;5.70;2.70;;;15.80;1.00;;;;;;5007734;28;20195;-84
2022/07/27 02:50:09;;;;;;;4.20;2.30;;;15.80;1.00;;;;;;5012935;28;21002;-84
2022/07/27 02:52:35;;;;;;;4.17;2.60;;;15.70;1.00;;;;;;5008269;28;20233;-84
2022/07/27 02:55:01;;;;;;;4.67;2.37;;;15.70;1.00;;;;;;5009383;28;20448;-84
2022/07/27 02:57:26;;;;;;;7.43;2.60;;;15.60;1.00;;;;;;5012141;28;21003;-86
2022/07/27 02:59:52;;;;;;;6.53;2.83;;;15.60;1.00;;;;;;5010558;28;20198;-85
2022/07/27 03:02:17;;;;;;;5.20;2.80;;;15.60;1.00;;;;;;5011751;28;20228;-84
2022/07/27 03:04:43;;;;;;;4.23;2.90;;;15.60;20.40;;;;;;5011115;28;20188;-85
2022/07/27 03:07:08;;;;;;;3.50;2.00;;;15.50;37.10;;;;;;5009738;28;20202;-87
2022/07/27 03:09:35;;;;;;;8.83;2.93;;;15.50;85.20;;;;;;5008438;28;20264;-84
2022/07/27 03:12:01;;;;;;;7.37;3.13;;;15.40;99.90;;;;;;5010133;28;20633;-84
2022/07/27 03:14:27;;;;;;;7.47;2.63;;;15.40;99.90;;;;;;5009335;28;20448;-83
2022/07/27 03:16:52;;;;;;;7.27;3.20;;;15.40;99.90;;;;;;5009223;28;21130;-84
2022/07/27 03:19:18;;;;;;;4.80;2.60;;;15.40;99.90;;;;;;5007774;28;20263;-85
2022/07/27 03:21:43;;;;;;;4.43;2.80;;;15.40;99.90;;;;;;5006037;28;20736;-86
2022/07/27 03:24:09;;;;;;;9.13;3.33;;;15.40;99.90;;;;;;5010766;28;20218;-84
2022/07/27 03:26:34;;;;;;;5.00;2.77;;;15.30;99.90;;;;;;5010723;28;20740;-84
2022/07/27 03:29:00;;;;;;;7.37;3.37;;;15.30;99.90;;;;;;5009029;28;20206;-85
2022/07/27 03:31:25;;;;;;;3.60;2.67;;;15.30;99.90;;;;;;5009768;28;20193;-84
2022/07/27 03:33:51;;;;;;;4.93;3.33;;;15.30;99.90;;;;;;5009678;28;20219;-84
2022/07/27 03:36:16;;;;;;;4.87;3.23;;;15.30;99.90;;;;;;5004071;28;20544;-84
2022/07/27 03:38:42;;;;;;;7.37;3.80;;;15.20;99.90;;;;;;5007782;28;20190;-84
2022/07/27 03:41:07;;;;;;;6.60;3.90;;;15.20;99.90;;;;;;5012287;28;20243;-84
2022/07/27 03:43:34;;;;;;;8.33;3.70;;;15.20;99.90;;;;;;5006729;28;20221;-85
2022/07/27 03:46:00;;;;;;;6.60;3.80;;;15.20;1.00;;;;;;5009436;28;20193;-85
2022/07/27 03:48:26;;;;;;;9.60;3.40;;;15.20;1.00;;;;;;5009929;28;20480;-84
2022/07/27 03:50:52;;;;;;;4.87;3.20;;;15.20;1.00;;;;;;5009013;28;20443;-85
2022/07/27 03:53:20;;;;;;;9.13;3.13;;;15.20;1.00;;;;;;5009962;28;20865;-85
2022/07/27 03:55:46;;;;;;;6.80;3.67;;;15.20;1.00;;;;;;5012363;28;20531;-86
2022/07/27 03:58:12;;;;;;;7.17;3.20;;;15.10;1.00;;;;;;5010360;28;20436;-86
2022/07/27 04:00:37;;;;;;;6.17;3.00;;;15.10;1.00;;;;;;5010516;28;20493;-84
2022/07/27 04:03:03;;;;;;;6.20;2.97;;;15.10;1.00;;;;;;5011767;28;20575;-85
2022/07/27 04:05:28;;;;;;;5.30;3.33;;;15.10;1.00;;;;;;5006939;28;20248;-84
2022/07/27 04:07:54;;;;;;;8.80;3.87;;;15.10;1.00;;;;;;5008422;28;20201;-84
2022/07/27 04:10:19;;;;;;;8.63;3.70;;;15.10;1.00;;;;;;5007898;28;20221;-84
2022/07/27 04:12:45;;;;;;;7.50;3.70;;;15.10;1.00;;;;;;5008667;28;20224;-84
2022/07/27 04:15:10;;;;;;;5.33;3.80;;;15.10;1.00;;;;;;5010380;28;20707;-85
2022/07/27 04:17:36;;;;;;;4.50;3.70;;;15.10;1.00;;;;;;5010418;28;20191;-84
2022/07/27 04:20:03;;;;;;;9.13;4.40;;;15.10;1.00;;;;;;5010007;28;20226;-84
2022/07/27 04:22:28;;;;;;;11.13;7.93;;;15.20;1.00;;;;;;5005272;28;20210;-84
2022/07/27 04:24:54;;;;;;;19.27;16.50;;;15.20;1.00;;;;;;5010744;28;20440;-84
2022/07/27 04:27:20;;;;;;;33.13;23.93;;;15.20;1.00;;;;;;5007722;28;20204;-84
2022/07/27 04:29:45;;;;;;;24.27;21.73;;;15.20;1.00;;;;;;5025594;28;20516;-83
2022/07/27 04:32:11;;;;;;;21.57;18.80;;;15.20;1.00;;;;;;5006452;28;20237;-85
2022/07/27 04:34:36;;;;;;;24.40;19.70;;;15.30;1.00;;;;;;5007513;28;20236;-85
2022/07/27 04:37:02;;;;;;;24.63;18.60;;;15.30;1.00;;;;;;5005306;28;20197;-84
2022/07/27 04:39:27;;;;;;;20.33;15.90;;;15.30;1.00;;;;;;5007445;28;20548;-86
2022/07/27 04:41:53;;;;;;;18.13;13.70;;;15.40;1.00;;;;;;5001955;28;20217;-84
2022/07/27 04:44:18;;;;;;;29.90;18.50;;;15.40;1.00;;;;;;5005180;28;20275;-84
2022/07/27 04:46:44;;;;;;;25.67;19.83;;;15.50;1.00;;;;;;5003240;28;20210;-84
2022/07/27 04:49:10;;;;;;;20.17;18.17;;;15.50;1.00;;;;;;5008998;28;20709;-84
2022/07/27 04:51:35;;;;;;;13.13;11.47;;;15.60;1.00;;;;;;5008283;28;20503;-85
2022/07/27 04:54:01;;;;;;;10.40;7.13;;;15.60;1.00;;;;;;5010231;28;20216;-83
2022/07/27 04:56:27;;;;;;;6.90;5.43;;;15.70;1.00;;;;;;5009759;28;20268;-84
2022/07/27 04:58:53;;;;;;;8.37;4.50;;;15.70;1.00;;;;;;5004314;28;20475;-84
2022/07/27 05:01:19;;;;;;;10.93;4.40;;;15.80;1.00;;;;;;5007945;28;20198;-87
2022/07/27 05:03:44;;;;;;;7.40;4.63;;;15.80;1.00;;;;;;5004266;28;21044;-84
2022/07/27 05:06:10;;;;;;;8.77;4.20;;;15.90;1.00;;;;;;5005756;28;20214;-86
2022/07/27 05:08:36;;;;;;;7.53;4.33;;;16.00;1.00;;;;;;5006295;28;20210;-84
2022/07/27 05:11:01;;;;;;;8.50;4.17;;;16.00;1.00;;;;;;5004859;28;20551;-84
2022/07/27 05:13:27;;;;;;;7.70;4.83;;;16.10;1.00;;;;;;5004459;28;20222;-85
2022/07/27 05:15:52;;;;;;;8.60;4.10;;;16.20;1.00;;;;;;5010408;28;20183;-84
2022/07/27 05:18:18;;;;;;;12.70;4.47;;;16.30;99.90;;;;;;5003287;28;20194;-85
2022/07/27 05:20:43;;;;;;;5.47;4.10;;;16.40;99.90;;;;;;5005104;28;20603;-84
2022/07/27 05:23:10;;;;;;;7.27;4.40;;;16.50;99.90;;;;;;5003704;28;20667;-84
2022/07/27 05:25:36;;;;;;;8.33;4.33;;;16.60;99.90;;;;;;5006083;28;20195;-84
2022/07/27 05:28:01;;;;;;;11.83;4.10;;;16.70;99.90;;;;;;5010981;28;20519;-84
2022/07/27 05:30:27;;;;;;;7.93;4.10;;;16.90;99.90;;;;;;5006706;28;20207;-84
2022/07/27 05:32:53;;;;;;;6.20;4.30;;;17.00;99.90;;;;;;5010295;28;20450;-84
2022/07/27 05:35:19;;;;;;;9.93;4.50;;;17.10;79.60;;;;;;5009464;28;20530;-85
2022/07/27 05:37:45;;;;;;;7.30;4.53;;;17.20;7.50;;;;;;5010284;28;20489;-84
2022/07/27 05:40:11;;;;;;;7.60;4.40;;;17.40;1.00;;;;;;5005643;28;20816;-84
2022/07/27 05:42:39;;;;;;;6.83;4.10;;;17.50;1.00;;;;;;5003697;28;20213;-84
2022/07/27 05:45:06;;;;;;;7.13;4.40;;;17.70;1.00;;;;;;5008082;28;20435;-84
2022/07/27 05:47:31;;;;;;;6.13;3.93;;;17.80;1.00;;;;;;5003746;28;20456;-84
2022/07/27 05:49:57;;;;;;;5.97;4.10;;;17.90;1.00;;;;;;5008745;28;20468;-84
2022/07/27 05:52:22;;;;;;;9.83;4.40;;;18.20;1.00;;;;;;5008407;28;20210;-84
2022/07/27 05:54:48;;;;;;;7.80;3.97;;;18.50;1.00;;;;;;5011570;28;20180;-84
2022/07/27 05:57:14;;;;;;;5.70;3.50;;;19.10;1.00;;;;;;5010387;28;20189;-85
2022/07/27 05:59:40;;;;;;;9.60;3.40;;;21.00;99.90;;;;;;5011279;28;20571;-86
2022/07/27 06:02:06;;;;;;;4.70;2.47;;;25.30;99.90;;;;;;5009970;28;20484;-85
2022/07/27 06:04:32;;;;;;;3.60;2.73;;;29.60;99.90;;;;;;5009637;28;20429;-87
2022/07/27 06:09:42;;;;;;;6.03;2.60;;;35.80;99.90;;;;;;5007901;28;20234;-86
2022/07/27 06:12:07;;;;;;;3.87;2.67;;;38.40;99.90;;;;;;5012304;28;20453;-88
2022/07/27 06:14:33;;;;;;;3.67;2.60;;;40.10;99.90;;;;;;5011302;28;20190;-87
2022/07/27 06:16:59;;;;;;;4.50;2.13;;;41.60;99.90;;;;;;5011377;28;20187;-88
2022/07/27 06:19:24;;;;;;;5.20;1.87;;;43.10;99.90;;;;;;5011314;28;20187;-86
2022/07/27 06:21:50;;;;;;;3.57;1.53;;;44.60;99.60;;;;;;5006847;28;20187;-85
2022/07/27 06:24:16;;;;;;;7.23;2.40;;;45.80;94.40;;;;;;5007692;28;20179;-87
2022/07/27 06:26:42;;;;;;;3.77;1.87;;;46.90;85.30;;;;;;5011179;28;20169;-86
2022/07/27 06:29:07;;;;;;;3.50;1.40;;;47.70;90.10;;;;;;5011618;28;20512;-88
2022/07/27 06:31:33;;;;;;;5.97;1.50;;;48.60;63.10;;;;;;5006794;28;20266;-89
2022/07/27 06:33:59;;;;;;;7.93;1.57;;;49.40;56.00;;;;;;5009331;28;20206;-90
2022/07/27 06:36:24;;;;;;;5.40;1.40;;;50.60;49.90;;;;;;5007192;28;20197;-91
2022/07/27 06:38:50;;;;;;;3.13;1.43;;;52.00;45.10;;;;;;5013904;28;20210;-87
2022/07/27 06:41:15;;;;;;;4.80;1.60;;;53.50;40.00;;;;;;5011667;28;20252;-88
2022/07/27 06:43:41;;;;;;;3.85;1.55;;;54.70;35.60;;;;;;5001439;28;20218;-87
2022/07/27 06:46:11;;;;;;;7.47;1.80;;;56.00;31.10;;;;;;5004521;28;20182;-89
2022/07/27 06:48:38;;;;;;;6.88;1.15;;;57.30;28.80;;;;;;5003971;28;20178;-88
2022/07/27 06:51:04;;;;;;;2.22;1.50;;;58.30;26.40;;;;;;5010564;28;20182;-89
2022/07/27 06:53:30;;;;;;;1.92;1.20;;;59.30;23.50;;;;;;5006836;28;20210;-87
2022/07/27 06:55:58;;;;;;;3.25;1.15;;;60.30;22.00;;;;;;5005100;28;20190;-88
2022/07/27 06:58:24;;;;;;;2.03;1.10;;;60.70;19.50;;;;;;5004712;28;20261;-89
2022/07/27 07:00:50;;;;;;;4.10;1.40;;;61.20;19.10;;;;;;5003747;28;20183;-88
2022/07/27 07:03:18;;;;;;;4.72;1.40;;;61.60;15.90;;;;;;5009042;28;20229;-87
2022/07/27 07:05:45;;;;;;;2.55;1.20;;;62.30;14.90;;;;;;5001474;28;20183;-85
2022/07/27 07:08:12;;;;;;;2.80;1.10;;;62.60;13.50;;;;;;5005172;28;20273;-89
2022/07/27 07:10:42;;;;;;;2.08;1.08;;;62.50;10.80;;;;;;5007169;28;20565;-86
2022/07/27 07:13:09;;;;;;;3.20;1.30;;;62.70;10.20;;;;;;5006011;28;20245;-87
2022/07/27 07:15:36;;;;;;;2.75;1.27;;;63.00;9.30;;;;;;5015525;23;20215;-86
2022/07/27 07:18:02;;;;;;;3.72;1.10;;;63.10;7.90;;;;;;4998920;28;21418;-86
2022/07/27 07:20:29;;;;;;;1.73;1.38;;;63.40;7.00;;;;;;4994402;28;20307;-87
2022/07/27 07:22:56;;;;;;;3.58;0.95;;;63.50;6.00;;;;;;5005224;28;20652;-86
2022/07/27 07:25:21;;;;;;;3.92;1.10;;;58.80;1.00;;;;;;4988927;28;20215;-86
2022/07/27 07:27:47;;;;;;;2.22;0.90;;;57.30;1.00;;;;;;4990006;28;20266;-85
2022/07/27 07:30:13;;;;;;;2.00;1.10;;;58.80;1.00;;;;;;4984817;28;20182;-87
2022/07/27 07:32:39;;;;;;;3.50;1.20;;;60.20;1.00;;;;;;4991429;28;20275;-86
2022/07/27 07:35:06;;;;;;;4.03;1.30;;;58.10;1.00;;;;;;4987887;28;20340;-85
2022/07/27 07:37:32;;;;;;;3.20;0.98;;;57.00;1.00;;;;;;4987417;28;20669;-86
2022/07/27 07:39:58;;;;;;;1.85;0.88;;;58.50;1.00;;;;;;4990037;28;20298;-87
2022/07/27 07:42:24;;;;;;;5.20;1.00;;;59.40;1.00;;;;;;4987273;28;20195;-86
2022/07/27 07:44:49;;;;;;;3.73;1.13;;;53.20;1.00;;;;;;4991880;28;20215;-85
2022/07/27 07:47:15;;;;;;;3.43;1.20;;;48.00;1.00;;;;;;4986332;28;20863;-85
2022/07/27 07:49:40;;;;;;;2.50;1.17;;;43.90;1.00;;;;;;4993502;28;20198;-85
2022/07/27 07:52:06;;;;;;;3.50;0.90;;;40.50;1.00;;;;;;4991884;28;20206;-85
2022/07/27 07:54:32;;;;;;;6.10;1.10;;;38.00;1.00;;;;;;4993641;28;20584;-84
2022/07/27 07:56:58;;;;;;;4.37;1.20;;;36.10;1.00;;;;;;4990755;28;20439;-84
2022/07/27 07:59:23;;;;;;;8.00;1.63;;;34.60;1.00;;;;;;4991599;28;20235;-84
2022/07/27 08:01:49;;;;;;;3.43;1.27;;;33.30;1.00;;;;;;4992965;28;20203;-82
2022/07/27 08:04:14;;;;;;;3.77;1.10;;;32.10;1.00;;;;;;4998578;28;20210;-84
2022/07/27 08:06:40;;;;;;;7.20;1.20;;;31.30;1.00;;;;;;4991744;28;20192;-84
2022/07/27 08:09:06;;;;;;;5.30;1.20;;;30.50;1.00;;;;;;4993016;28;20190;-84
2022/07/27 08:11:31;;;;;;;3.87;1.00;;;29.90;1.00;;;;;;4996764;28;20190;-85
2022/07/27 08:13:57;;;;;;;4.67;1.60;;;29.40;1.00;;;;;;4987314;28;20463;-84
2022/07/27 08:16:23;;;;;;;4.40;1.30;;;29.00;1.00;;;;;;4997736;28;20191;-82
2022/07/27 08:18:48;;;;;;;5.63;1.03;;;28.60;1.00;;;;;;4998492;28;20223;-84
2022/07/27 08:21:14;;;;;;;3.83;1.13;;;28.20;1.00;;;;;;4996634;28;20191;-84
2022/07/27 08:23:40;;;;;;;3.20;1.23;;;28.00;1.00;;;;;;4987572;28;20252;-84
2022/07/27 08:26:05;;;;;;;5.10;1.00;;;28.20;1.00;;;;;;4991910;28;20183;-84
2022/07/27 08:28:31;;;;;;;1.87;0.80;;;28.50;1.00;;;;;;4987728;28;20464;-84
2022/07/27 08:30:56;;;;;;;2.77;1.23;;;28.80;1.00;;;;;;4994566;28;20307;-84
2022/07/27 08:33:22;;;;;;;6.77;1.17;;;28.50;1.00;;;;;;4995802;28;20204;-84
2022/07/27 08:35:48;;;;;;;2.30;1.10;;;28.00;1.00;;;;;;4989144;28;20235;-84
2022/07/27 08:38:13;;;;;;;3.07;1.03;;;27.70;1.00;;;;;;4992177;28;20195;-84
2022/07/27 08:40:40;;;;;;;2.30;0.87;;;27.60;1.00;;;;;;4997099;28;20224;-84
2022/07/27 08:43:06;;;;;;;3.30;1.10;;;27.70;1.00;;;;;;4991372;28;20175;-84
2022/07/27 08:45:33;;;;;;;3.43;1.10;;;28.90;1.00;;;;;;4987428;28;20478;-84
2022/07/27 08:47:59;;;;;;;4.30;1.00;;;30.30;1.00;;;;;;4991796;28;20840;-85
2022/07/27 08:50:33;;;;;;;1.87;1.00;;;36.50;15.10;;;;;;4983827;28;20427;-84
2022/07/27 08:53:03;;;;;;;3.77;0.90;;;41.20;21.80;;;;;;4990038;28;20183;-85
2022/07/27 08:55:34;;;;;;;4.30;0.80;;;45.00;24.00;;;;;;4988348;28;20516;-85
2022/07/27 08:58:00;;;;;;;1.93;0.90;;;47.90;24.70;;;;;;4990868;28;20796;-86
2022/07/27 09:00:27;;;;;;;1.57;0.70;;;49.00;21.00;;;;;;4998390;28;20463;-85
2022/07/27 09:02:53;;;;;;;2.30;1.03;;;45.70;10.50;;;;;;4990669;28;20194;-85
2022/07/27 09:05:19;;;;;;;2.70;0.97;;;42.30;2.30;;;;;;4993746;28;20496;-84
2022/07/27 09:07:44;;;;;;;2.33;0.80;;;39.50;1.00;;;;;;4990212;28;20447;-86
2022/07/27 09:10:26;;;;;;;2.40;1.00;;;37.50;1.00;;;;;;4990956;28;20447;-85
2022/07/27 09:12:52;;;;;;;2.23;0.90;;;35.80;1.00;;;;;;4989731;28;20210;-86
2022/07/27 09:15:17;;;;;;;2.70;0.90;;;34.30;1.00;;;;;;4989122;28;20986;-85
2022/07/27 09:17:43;;;;;;;3.77;1.20;;;33.40;1.00;;;;;;4990787;28;20184;-85
2022/07/27 09:20:11;;;;;;;3.80;0.87;;;32.70;1.00;;;;;;4990704;28;20215;-85
2022/07/27 09:22:55;;;;;;;5.10;1.00;;;32.10;1.00;;;;;;4989737;28;20190;-85
2022/07/27 09:25:22;;;;;;;5.13;1.40;;;31.40;1.00;;;;;;4990101;28;20570;-85
2022/07/27 09:27:52;;;;;;;2.57;0.87;;;30.90;1.00;;;;;;4991886;28;20449;-85
2022/07/27 09:30:26;;;;;;;2.73;0.93;;;30.60;1.00;;;;;;4988971;28;20446;-84
2022/07/27 09:32:56;;;;;;;3.13;1.10;;;30.30;1.00;;;;;;4989775;28;20526;-85
2022/07/27 09:35:28;;;;;;;3.57;0.97;;;30.10;1.00;;;;;;4986767;28;20893;-85
2022/07/27 09:37:55;;;;;;;3.37;0.97;;;29.90;1.00;;;;;;4988412;28;20499;-84
2022/07/27 09:40:22;;;;;;;2.60;1.03;;;29.60;1.00;;;;;;4989745;28;20500;-85
2022/07/27 09:43:08;;;;;;;4.87;1.53;;;29.50;1.00;;;;;;4991898;28;20438;-85
2022/07/27 09:45:36;;;;;;;1.83;0.60;;;29.30;1.00;;;;;;4990765;28;20477;-84
2022/07/27 09:48:22;;;;;;;2.10;1.10;;;29.10;1.00;;;;;;4993506;28;20581;-85
2022/07/27 09:50:57;;;;;;;6.80;1.00;;;28.80;1.00;;;;;;4991064;28;20525;-85
2022/07/27 09:53:26;;;;;;;4.03;1.20;;;28.70;1.00;;;;;;4988661;28;20435;-86
2022/07/27 09:56:13;;;;;;;3.50;0.87;;;28.70;1.00;;;;;;4994680;28;20933;-85
2022/07/27 09:58:48;;;;;;;3.60;1.00;;;28.70;1.00;;;;;;4995190;28;20461;-85
2022/07/27 10:01:16;;;;;;;2.90;0.87;;;28.80;1.00;;;;;;4995326;28;20438;-85
2022/07/27 10:03:43;;;;;;;3.57;1.03;;;28.90;1.00;;;;;;4994047;28;20514;-85
2022/07/27 10:06:12;;;;;;;4.93;1.03;;;29.50;2.10;;;;;;5012062;28;20426;-85
2022/07/27 10:08:40;;;;;;;4.30;1.10;;;29.90;3.30;;;;;;4992078;28;20448;-85
2022/07/27 10:11:07;;;;;;;2.50;0.80;;;30.50;5.20;;;;;;4992639;28;20443;-84
2022/07/27 10:13:33;;;;;;;4.70;1.17;;;31.50;7.20;;;;;;4994597;28;21699;-86
2022/07/27 10:16:01;;;;;;;5.47;0.93;;;32.60;10.00;;;;;;4996523;28;21455;-85
2022/07/27 10:18:47;;;;;;;3.80;1.10;;;33.50;21.70;;;;;;4995423;28;20443;-86
2022/07/27 10:21:14;;;;;;;4.57;1.20;;;34.90;14.80;;;;;;4995865;28;20434;-85
2022/07/27 10:24:09;;;;;;;5.10;1.03;;;35.30;15.40;;;;;;4990926;28;20462;-85
2022/07/27 10:26:37;;;;;;;1.93;1.27;;;35.30;14.50;;;;;;4974021;28;20873;-86
2022/07/27 10:29:13;;;;;;;5.43;1.00;;;35.00;13.10;;;;;;4993379;28;20521;-84
2022/07/27 10:31:41;;;;;;;2.20;1.10;;;34.60;11.30;;;;;;4994059;28;20453;-85
2022/07/27 10:34:09;;;;;;;4.60;1.13;;;34.10;10.10;;;;;;4996390;28;20459;-86
2022/07/27 10:36:34;;;;;;;3.33;1.10;;;33.90;8.80;;;;;;4990594;28;20938;-86
2022/07/27 10:39:06;;;;;;;4.97;0.90;;;33.70;7.70;;;;;;4995479;28;20457;-86
2022/07/27 10:41:34;;;;;;;4.53;1.20;;;33.70;7.60;;;;;;4988755;28;20184;-85
2022/07/27 10:44:16;;;;;;;2.37;0.70;;;34.30;9.00;;;;;;4994142;28;20468;-86
2022/07/27 10:46:54;;;;;;;2.60;0.80;;;34.50;9.40;;;;;;4985914;28;20449;-85
2022/07/27 10:49:24;;;;;;;1.67;0.90;;;35.40;20.30;;;;;;4988637;28;20440;-86
2022/07/27 10:51:54;;;;;;;2.33;0.80;;;36.00;10.70;;;;;;4992748;28;20509;-85
2022/07/27 10:54:25;;;;;;;3.33;0.80;;;36.50;10.80;;;;;;4993238;28;20986;-86
2022/07/27 10:56:53;;;;;;;2.17;0.80;;;39.10;14.20;;;;;;4990500;28;20439;-86
2022/07/27 10:59:38;;;;;;;2.30;0.90;;;41.00;15.60;;;;;;4990004;28;20519;-86
2022/07/27 11:02:05;;;;;;;1.63;0.70;;;41.50;13.10;;;;;;4988775;28;20454;-86
2022/07/27 11:04:34;;;;;;;2.33;0.70;;;42.10;11.80;;;;;;4991065;28;20970;-85
2022/07/27 11:07:01;;;;;;;2.03;0.70;;;42.80;11.60;;;;;;4989717;28;20505;-86
2022/07/27 11:09:41;;;;;;;1.63;0.60;;;43.10;9.90;;;;;;4991274;28;20443;-86
2022/07/27 11:12:08;;;;;;;3.20;0.80;;;43.70;8.00;;;;;;4992322;28;20815;-86
2022/07/27 11:14:48;;;;;;;2.73;0.80;;;44.10;7.10;;;;;;4989815;28;20580;-86
2022/07/27 11:17:17;;;;;;;2.60;1.00;;;44.30;5.70;;;;;;4989857;28;20445;-86
2022/07/27 11:19:42;;;;;;;5.20;0.83;;;44.30;4.10;;;;;;4989187;28;20461;-86
2022/07/27 11:22:09;;;;;;;3.43;0.90;;;43.80;1.70;;;;;;4988530;28;20473;-86
2022/07/27 11:24:37;;;;;;;5.00;0.90;;;42.80;1.00;;;;;;4985435;28;20676;-86
2022/07/27 11:27:03;;;;;;;2.30;0.67;;;41.40;1.00;;;;;;4993445;28;20496;-85
2022/07/27 11:29:34;;;;;;;2.73;0.80;;;39.60;1.00;;;;;;4989354;28;20464;-85
2022/07/27 11:32:00;;;;;;;3.07;0.80;;;38.10;1.00;;;;;;4992454;28;20794;-85
2022/07/27 11:34:28;;;;;;;3.20;1.07;;;36.70;1.00;;;;;;4994345;28;20753;-86
2022/07/27 11:36:57;;;;;;;3.93;0.97;;;35.50;1.00;;;;;;4987545;28;20196;-85
2022/07/27 11:39:25;;;;;;;2.83;0.80;;;34.50;1.00;;;;;;4993591;28;20489;-86
2022/07/27 11:41:55;;;;;;;2.20;1.20;;;33.60;1.00;;;;;;4986498;28;20477;-85
2022/07/27 11:44:21;;;;;;;4.70;1.00;;;33.00;1.00;;;;;;4988221;28;20458;-85
2022/07/27 11:46:48;;;;;;;3.10;0.90;;;32.50;1.00;;;;;;4988800;28;20538;-86
2022/07/27 11:49:17;;;;;;;1.80;0.73;;;32.10;1.00;;;;;;4989096;28;20451;-85
2022/07/27 11:51:43;;;;;;;1.90;0.87;;;31.90;1.00;;;;;;4997694;28;20447;-85
2022/07/27 11:54:23;;;;;;;4.90;0.90;;;31.70;1.00;;;;;;4993918;28;20464;-85
2022/07/27 11:56:57;;;;;;;4.60;1.20;;;31.70;1.00;;;;;;4991947;28;20422;-85
2022/07/27 11:59:29;;;;;;;2.50;1.00;;;31.60;1.00;;;;;;4994176;28;20495;-85
2022/07/27 12:01:57;;;;;;;2.37;1.10;;;31.50;1.00;;;;;;4993738;28;20443;-85
2022/07/27 12:04:26;;;;;;;3.03;0.90;;;31.70;1.00;;;;;;4996149;28;20458;-85
2022/07/27 12:07:12;;;;;;;2.87;0.83;;;31.80;1.00;;;;;;4984030;28;20498;-85
2022/07/27 12:09:53;;;;;;;4.63;0.70;;;32.10;1.00;;;;;;4986060;28;20477;-85
2022/07/27 12:12:25;;;;;;;2.57;0.90;;;33.60;1.00;;;;;;4993461;28;20427;-86
2022/07/27 12:14:56;;;;;;;2.40;0.83;;;35.60;1.00;;;;;;4992343;28;20469;-85
2022/07/27 12:17:29;;;;;;;1.60;0.90;;;36.90;1.60;;;;;;4989601;28;20683;-85
2022/07/27 12:19:54;;;;;;;4.00;0.90;;;36.50;8.90;;;;;;5009747;28;20469;-85
2022/07/27 12:22:25;;;;;;;1.17;0.73;;;36.80;1.00;;;;;;4995377;28;20422;-85
2022/07/27 12:24:54;;;;;;;1.63;0.70;;;37.00;1.00;;;;;;4991804;28;20235;-86
2022/07/27 12:27:20;;;;;;;3.37;0.87;;;37.10;1.00;;;;;;4991842;28;20445;-85
2022/07/27 12:29:59;;;;;;;2.00;0.80;;;37.30;1.00;;;;;;4994016;28;20435;-85
2022/07/27 12:32:26;;;;;;;1.63;0.60;;;37.10;1.00;;;;;;4984656;28;20443;-85
2022/07/27 12:34:53;;;;;;;4.00;1.07;;;36.50;1.00;;;;;;4990606;28;20443;-85
2022/07/27 12:37:19;;;;;;;2.80;0.80;;;35.80;1.00;;;;;;4986665;28;20462;-85
2022/07/27 12:39:45;;;;;;;6.57;0.90;;;35.80;1.00;;;;;;4993803;28;20474;-85
2022/07/27 12:42:12;;;;;;;2.40;0.80;;;36.20;1.00;;;;;;4991039;28;20562;-86
2022/07/27 12:44:40;;;;;;;1.30;0.70;;;35.90;1.00;;;;;;4993057;28;20466;-85
2022/07/27 12:50:13;;;;;;;2.80;0.80;;;34.80;1.00;;;;;;4987506;28;20509;-85
2022/07/27 12:52:47;;;;;;;4.90;1.40;;;34.20;1.00;;;;;;4992853;28;20453;-85
2022/07/27 12:55:13;;;;;;;4.87;1.03;;;33.30;1.00;;;;;;4986641;28;20459;-84
2022/07/27 12:57:40;;;;;;;3.13;1.30;;;32.30;1.00;;;;;;4991660;28;20449;-84
2022/07/27 13:00:09;;;;;;;8.30;1.10;;;31.70;1.00;;;;;;4994821;28;20494;-85
2022/07/27 13:02:34;;;;;;;4.50;1.20;;;31.20;1.00;;;;;;4990519;28;20432;-85